Aérodrome :
LOGIN :

S'inscrire | Disclaimer

   EN    FR    IT 

 










Légende :    VFR   VFR Marginal   IFR   IFR Intensif   IFR Très Intensif
Visi : 
Plafond : 
>= 8 km
>= 3000ft
5 à 8 km
1000 à 3000 ft
1500m à 5 km
500 à 1000 ft
800 à 1500m
200 à 500 ft
< 800m
< 200 ft
Symboles :   Orages  Brouillard  Fortes neiges  Fortes précipitations  Vent > 20 kt
SIGMETs :   Divers  Orages  Givrage  Turbulence  Onde Orograph.  Cendres Volcan.






- Altitude de l'aérodrome : 468 ft
- Code IATA : GRO


LEGE - Girona Costa Brava

DERNIER METAR :
  • 232100Z 03004KT 360V070 9999 FEW074 19/14 Q1019

METARs EXPIRÉS :
  • 232030Z 03006KT 360V070 9999 FEW074 19/13 Q1018
  • 232000Z 16005KT 120V190 9999 FEW068 20/13 Q1017
  • 231930Z 18007KT 9999 FEW064 21/13 Q1017
  • 231900Z 16007KT 9999 FEW064 22/13 Q1017
  • 231830Z 17008KT 140V200 9999 VCSH FEW052TCU SCT066 23/13 Q1016

TAF TAF LEGE
Valide du 23 à 18h jusqu'au 24 à 18h UTC


231700Z 2318/2418 22008KT 9999 FEW050 TX27/2413Z TN14/2406Z
BECMG 2319/2321 VRB03KT
BECMG 2407/2409 16010KT



MET'MAP, la Météo Aéronautique d'un coup d'oeil ! - Copyright ORBIFLY Décembre 2007 - Disclaimer

ORBIFLY MET'MAP TEAM :

Programmation & Développement : Alexandra Zaïnal
Sur une idée originale de : Baudouin d'Aumeries
Assistance à la programmation : Marc-Olivier Méhu
Soutien technique & logistique : Manuel Goepfert

Contact : metmap@orbifly.com




SOURCES & CREDITS :

   NOAA